Terminal Aerodrome Forecast
Issued by NWS

Home | Current Version | Previous Version | Text Only | Print | Product List | Glossary On
Versions: 1 2 3 4 5 6 7 8 9 10 11 12 13 14 15 16 17 18 19
000
FTUS43 KOAX 301125
TAFBFF
TAF
KBFF 301125Z 3012/3112 12005KT P6SM OVC020
     FM301600 14013KT P6SM FEW025
     FM310100 12008KT P6SM SCT300=

USA.gov is the U.S. government's official web portal to all federal, state and local government web resources and services.